Time;durP1;ratioP1;P1;durP2;ratioP2;P2;SDS_P1;SDS_P2;PMS_P1;PMS_P2;Temp;Humidity;BMP_temperature;BMP_pressure;BME280_temperature;BME280_humidity;BME280_pressure;Samples;Min_cycle;Max_cycle;Signal;HPM_P1;HPM_P2
2020/12/02 00:02:24;;;;;;;18.20;12.63;;;18.80;48.70;;;;;;5060419;28;20062;-51
2020/12/02 00:04:49;;;;;;;15.98;12.15;;;18.80;48.70;;;;;;5067459;28;20040;-50
2020/12/02 00:07:15;;;;;;;17.23;12.48;;;18.80;48.70;;;;;;5040621;28;20413;-52
2020/12/02 00:09:41;;;;;;;17.48;11.40;;;18.80;48.70;;;;;;5057964;28;20036;-52
2020/12/02 00:12:06;;;;;;;16.42;11.82;;;18.80;48.70;;;;;;5065998;28;20114;-50
2020/12/02 00:14:32;;;;;;;17.92;11.23;;;18.80;48.70;;;;;;5082543;28;20428;-51
2020/12/02 00:16:57;;;;;;;19.20;12.18;;;18.80;48.70;;;;;;5082703;28;20047;-51
2020/12/02 00:19:23;;;;;;;18.08;10.63;;;18.80;48.70;;;;;;5068609;28;20055;-51
2020/12/02 00:22:09;;;;;;;16.02;11.13;;;18.80;48.70;;;;;;5065702;28;20070;-50
2020/12/02 00:24:34;;;;;;;;;;;18.80;48.70;;;;;;5048462;28;20036;-51
2020/12/02 00:27:07;;;;;;;14.88;10.77;;;18.80;48.60;;;;;;5066337;28;19923;-50
2020/12/02 00:29:32;;;;;;;14.30;11.30;;;18.80;48.60;;;;;;5075233;28;20174;-52
2020/12/02 00:31:58;;;;;;;15.20;10.55;;;18.80;48.60;;;;;;5077719;28;20536;-51
2020/12/02 00:34:23;;;;;;;16.75;10.30;;;18.80;48.60;;;;;;5067431;28;20037;-51
2020/12/02 00:36:49;;;;;;;18.88;11.23;;;18.80;48.70;;;;;;5076910;28;20035;-51
2020/12/02 00:39:14;;;;;;;15.68;10.85;;;18.80;48.70;;;;;;5085969;28;20493;-51
2020/12/02 00:41:40;;;;;;;19.08;10.75;;;18.80;48.60;;;;;;5075072;28;20121;-52
2020/12/02 00:44:05;;;;;;;15.00;10.75;;;18.80;48.60;;;;;;5065590;28;20465;-51
2020/12/02 00:46:32;;;;;;;14.05;10.32;;;18.80;48.60;;;;;;5073524;28;20131;-50
2020/12/02 00:48:58;;;;;;;15.98;11.00;;;18.80;48.70;;;;;;5055872;28;20459;-51
2020/12/02 00:51:23;;;;;;;13.93;10.52;;;18.80;48.60;;;;;;5056307;28;20463;-50
2020/12/02 00:53:48;;;;;;;16.13;10.50;;;18.80;48.50;;;;;;5076124;28;20165;-51
2020/12/02 00:56:14;;;;;;;11.57;9.50;;;18.80;48.50;;;;;;5076585;28;20032;-50
2020/12/02 00:58:46;;;;;;;14.85;10.25;;;18.80;48.60;;;;;;5067317;28;20130;-50
2020/12/02 01:01:14;;;;;;;14.27;10.52;;;18.80;48.50;;;;;;5050809;28;20040;-51
2020/12/02 01:03:39;;;;;;;11.68;9.85;;;18.80;48.50;;;;;;5085094;28;20036;-50
2020/12/02 01:06:05;;;;;;;11.88;9.85;;;18.80;48.50;;;;;;5065319;28;20043;-50
2020/12/02 01:08:33;;;;;;;12.25;10.05;;;18.80;48.50;;;;;;5047375;28;20044;-51
2020/12/02 01:11:05;;;;;;;14.52;11.23;;;18.80;48.50;;;;;;5072794;28;20028;-53
2020/12/02 01:13:32;;;;;;;14.07;10.63;;;18.80;48.40;;;;;;5081188;28;20024;-53
2020/12/02 01:15:58;;;;;;;17.73;11.05;;;18.80;48.40;;;;;;5058931;28;20038;-50
2020/12/02 01:18:25;;;;;;;12.25;9.88;;;18.80;48.40;;;;;;5085031;28;20032;-53
2020/12/02 01:21:00;;;;;;;13.70;9.82;;;18.80;48.40;;;;;;5053686;28;20032;-51
2020/12/02 01:23:25;;;;;;;14.02;10.05;;;18.80;48.40;;;;;;5064246;28;20120;-50
2020/12/02 01:25:51;;;;;;;13.18;9.95;;;18.80;48.30;;;;;;5057762;28;20036;-51
2020/12/02 01:28:22;;;;;;;12.10;10.18;;;18.80;48.30;;;;;;5066271;28;20500;-51
2020/12/02 01:30:48;;;;;;;12.02;9.63;;;18.80;48.40;;;;;;5040526;28;20035;-50
2020/12/02 01:33:15;;;;;;;15.25;9.40;;;18.80;48.40;;;;;;5058892;28;20040;-52
2020/12/02 01:35:40;;;;;;;13.77;10.30;;;18.80;48.40;;;;;;5073476;28;20494;-49
2020/12/02 01:38:06;;;;;;;11.85;9.73;;;18.80;48.40;;;;;;5046628;28;20032;-50
2020/12/02 01:40:35;;;;;;;13.57;9.85;;;18.80;48.30;;;;;;5061647;28;20036;-52
2020/12/02 01:43:08;;;;;;;13.35;9.90;;;18.80;48.40;;;;;;5059141;28;20047;-51
2020/12/02 01:45:42;;;;;;;12.45;9.70;;;18.80;48.30;;;;;;5075093;28;20024;-50
2020/12/02 01:48:34;;;;;;;13.43;9.90;;;18.80;48.30;;;;;;5046726;28;20044;-52
2020/12/02 01:51:15;;;;;;;12.80;9.77;;;18.80;48.40;;;;;;5069676;28;20024;-52
2020/12/02 01:54:20;;;;;;;12.30;10.07;;;18.80;48.40;;;;;;5056815;28;20032;-50
2020/12/02 01:57:12;;;;;;;11.80;10.25;;;18.80;48.20;;;;;;5066192;28;20123;-51
2020/12/02 01:59:50;;;;;;;11.93;10.05;;;18.80;48.20;;;;;;5075736;28;20036;-52
2020/12/02 02:02:20;;;;;;;13.27;10.20;;;18.80;48.30;;;;;;5056957;28;20366;-51
2020/12/02 02:05:06;;;;;;;12.55;9.77;;;18.80;48.30;;;;;;5061620;28;20158;-52
2020/12/02 02:07:32;;;;;;;11.85;9.68;;;18.80;48.30;;;;;;5052565;28;20044;-52
2020/12/02 02:10:07;;;;;;;12.60;10.80;;;18.80;48.30;;;;;;5083432;28;20084;-50
2020/12/02 02:12:52;;;;;;;12.00;10.48;;;18.80;48.40;;;;;;5066283;28;20039;-51
2020/12/02 02:15:36;;;;;;;11.47;9.83;;;18.80;48.40;;;;;;5024083;28;20063;-50
2020/12/02 02:18:05;;;;;;;12.73;9.82;;;18.80;48.30;;;;;;5057656;28;20044;-50
2020/12/02 02:20:33;;;;;;;14.90;9.82;;;18.80;48.30;;;;;;5083109;28;20028;-50
2020/12/02 02:22:59;;;;;;;13.57;9.55;;;18.80;48.20;;;;;;5046860;28;20079;-50
2020/12/02 02:25:25;;;;;;;11.57;9.95;;;18.80;48.30;;;;;;5062236;28;20056;-49
2020/12/02 02:27:50;;;;;;;11.45;9.48;;;18.80;48.40;;;;;;5052739;28;20068;-49
2020/12/02 02:30:16;;;;;;;11.63;10.15;;;18.80;48.30;;;;;;5057040;28;20036;-50
2020/12/02 02:32:41;;;;;;;13.05;9.68;;;18.70;48.20;;;;;;5062062;28;20024;-50
2020/12/02 02:35:07;;;;;;;12.38;9.95;;;18.80;48.30;;;;;;5053955;28;20044;-50
2020/12/02 02:37:33;;;;;;;11.13;9.27;;;18.80;48.30;;;;;;5059083;28;20097;-50
2020/12/02 02:39:59;;;;;;;9.98;8.85;;;18.80;48.30;;;;;;5082710;28;20028;-50
2020/12/02 02:42:30;;;;;;;11.70;9.60;;;18.80;48.30;;;;;;5079271;28;20032;-51
2020/12/02 02:44:56;;;;;;;11.27;9.60;;;18.80;48.30;;;;;;5051355;28;20036;-50
2020/12/02 02:47:21;;;;;;;12.05;9.75;;;18.80;48.40;;;;;;5074461;28;20408;-50
2020/12/02 02:49:47;;;;;;;10.18;9.13;;;18.80;48.30;;;;;;5070245;28;21073;-49
2020/12/02 02:52:12;;;;;;;11.32;9.60;;;18.80;48.30;;;;;;5077366;28;20519;-51
2020/12/02 02:54:37;;;;;;;10.90;9.10;;;18.80;48.20;;;;;;5072867;28;20044;-50
2020/12/02 02:57:03;;;;;;;12.48;10.02;;;18.80;48.10;;;;;;5063287;28;20039;-50
2020/12/02 02:59:28;;;;;;;11.52;9.38;;;18.80;48.10;;;;;;5044335;28;20523;-50
2020/12/02 03:01:54;;;;;;;11.57;9.48;;;18.80;48.10;;;;;;5071147;28;20040;-51
2020/12/02 03:04:20;;;;;;;10.52;9.43;;;18.80;48.10;;;;;;5036309;28;20032;-50
2020/12/02 03:06:47;;;;;;;9.27;8.32;;;18.80;48.10;;;;;;5042631;28;20045;-50
2020/12/02 03:09:12;;;;;;;9.88;8.63;;;18.80;48.40;;;;;;5063076;28;20166;-50
2020/12/02 03:11:38;;;;;;;11.05;9.93;;;18.80;48.40;;;;;;5072737;28;20145;-50
2020/12/02 03:14:03;;;;;;;10.32;9.20;;;18.80;48.20;;;;;;5062795;28;20082;-50
2020/12/02 03:16:39;;;;;;;10.75;9.60;;;18.80;48.10;;;;;;5053660;28;20102;-50
2020/12/02 03:19:21;;;;;;;11.82;9.73;;;18.80;48.10;;;;;;5062440;28;20040;-50
2020/12/02 03:21:48;;;;;;;11.45;9.18;;;18.80;48.20;;;;;;5044012;28;20509;-50
2020/12/02 03:24:13;;;;;;;10.73;9.63;;;18.80;48.30;;;;;;5053684;28;20571;-50
2020/12/02 03:26:39;;;;;;;11.38;9.60;;;18.80;48.10;;;;;;5065371;28;20073;-50
2020/12/02 03:29:05;;;;;;;10.73;8.88;;;18.80;48.00;;;;;;5055911;28;20085;-50
2020/12/02 03:31:31;;;;;;;11.05;9.27;;;18.80;48.10;;;;;;5079778;28;20043;-50
2020/12/02 03:33:56;;;;;;;10.77;9.68;;;18.80;48.00;;;;;;5076269;28;20036;-49
2020/12/02 03:36:22;;;;;;;10.40;9.32;;;18.80;47.90;;;;;;5065936;28;20036;-50
2020/12/02 03:38:48;;;;;;;9.65;8.70;;;18.80;47.90;;;;;;5076395;28;20119;-51
2020/12/02 03:41:13;;;;;;;11.60;9.02;;;18.80;48.10;;;;;;5079185;28;20044;-50
2020/12/02 03:43:39;;;;;;;14.45;9.85;;;18.80;48.20;;;;;;5083404;28;20476;-49
2020/12/02 03:46:05;;;;;;;9.77;8.85;;;18.80;48.00;;;;;;5073683;28;20040;-50
2020/12/02 03:48:30;;;;;;;10.57;8.82;;;18.80;47.90;;;;;;5076583;28;20485;-51
2020/12/02 03:50:56;;;;;;;10.57;9.43;;;18.80;47.80;;;;;;5065795;28;20036;-50
2020/12/02 03:53:21;;;;;;;11.32;10.10;;;18.80;47.90;;;;;;5056338;28;20379;-50
2020/12/02 03:55:47;;;;;;;11.65;9.75;;;18.80;47.90;;;;;;5073389;28;20237;-50
2020/12/02 03:58:12;;;;;;;11.50;9.50;;;18.80;47.90;;;;;;5074045;28;20105;-51
2020/12/02 04:00:38;;;;;;;9.80;8.80;;;18.80;47.90;;;;;;5074890;28;20398;-51
2020/12/02 04:03:04;;;;;;;11.00;9.82;;;18.80;47.80;;;;;;5059987;28;20040;-51
2020/12/02 04:05:30;;;;;;;10.35;9.25;;;18.80;48.00;;;;;;5074473;28;20032;-51
2020/12/02 04:07:56;;;;;;;9.13;8.02;;;18.80;47.80;;;;;;5072902;28;20036;-50
2020/12/02 04:10:21;;;;;;;9.45;8.50;;;18.80;47.80;;;;;;5066381;28;20407;-51
2020/12/02 04:12:47;;;;;;;10.70;9.23;;;18.80;47.70;;;;;;5061277;28;20167;-52
2020/12/02 04:15:15;;;;;;;10.88;8.55;;;18.80;47.90;;;;;;5067852;28;20036;-50
2020/12/02 04:17:41;;;;;;;10.57;9.43;;;18.80;48.10;;;;;;5066516;28;20032;-50
2020/12/02 04:20:07;;;;;;;10.45;9.25;;;18.80;47.90;;;;;;5054106;28;20481;-50
2020/12/02 04:22:33;;;;;;;11.48;9.35;;;18.80;47.80;;;;;;5083753;28;20063;-50
2020/12/02 04:24:58;;;;;;;11.43;9.32;;;18.80;47.90;;;;;;5065968;28;20029;-50
2020/12/02 04:27:24;;;;;;;10.45;8.40;;;18.70;47.90;;;;;;5065445;28;20598;-51
2020/12/02 04:29:49;;;;;;;9.65;8.65;;;18.80;48.00;;;;;;5065225;28;20028;-50
2020/12/02 04:32:15;;;;;;;11.18;9.38;;;18.80;48.00;;;;;;5080495;28;20043;-50
2020/12/02 04:34:40;;;;;;;9.77;7.60;;;18.70;47.90;;;;;;5066199;28;20486;-50
2020/12/02 04:37:06;;;;;;;9.88;8.85;;;18.70;47.90;;;;;;5050029;28;20081;-50
2020/12/02 04:39:31;;;;;;;11.13;8.77;;;18.70;47.80;;;;;;5068380;28;20036;-53
2020/12/02 04:41:57;;;;;;;10.57;8.88;;;18.70;47.90;;;;;;5078129;28;20044;-50
2020/12/02 04:44:22;;;;;;;9.73;8.73;;;18.70;47.70;;;;;;5073748;28;20040;-50
2020/12/02 04:46:52;;;;;;;10.48;8.32;;;18.60;47.80;;;;;;5059101;28;20471;-51
2020/12/02 04:49:19;;;;;;;10.27;8.48;;;18.60;47.70;;;;;;5058505;28;20124;-50
2020/12/02 04:51:45;;;;;;;10.02;8.63;;;18.60;47.70;;;;;;5072791;28;20036;-49
2020/12/02 04:54:10;;;;;;;8.75;7.85;;;18.60;47.70;;;;;;5080730;28;20028;-52
2020/12/02 04:56:38;;;;;;;9.23;8.13;;;18.60;47.80;;;;;;5068089;28;20032;-50
2020/12/02 04:59:03;;;;;;;9.32;8.02;;;18.50;47.70;;;;;;5044523;28;20024;-51
2020/12/02 05:01:30;;;;;;;10.05;8.50;;;18.60;47.70;;;;;;5075968;28;20028;-50
2020/12/02 05:04:07;;;;;;;9.48;8.45;;;18.50;47.70;;;;;;5046938;28;20086;-49
2020/12/02 05:07:05;;;;;;;9.10;7.88;;;18.50;47.60;;;;;;5081144;28;20090;-50
2020/12/02 05:09:31;;;;;;;9.23;8.05;;;18.50;47.70;;;;;;5054959;28;20063;-51
2020/12/02 05:12:01;;;;;;;9.40;8.38;;;18.50;47.70;;;;;;5078272;28;20055;-51
2020/12/02 05:14:38;;;;;;;9.25;8.20;;;18.50;47.80;;;;;;5068133;28;20040;-50
2020/12/02 05:17:18;;;;;;;9.65;8.52;;;18.50;47.80;;;;;;5058417;28;20029;-53
2020/12/02 05:19:45;;;;;;;8.20;7.38;;;18.50;47.80;;;;;;5049584;28;20036;-52
2020/12/02 05:22:15;;;;;;;11.35;8.60;;;18.40;47.80;;;;;;5066296;28;20501;-52
2020/12/02 05:24:46;;;;;;;8.88;7.97;;;18.50;47.70;;;;;;5063885;28;20043;-52
2020/12/02 05:27:14;;;;;;;11.80;8.95;;;18.40;47.80;;;;;;5071220;28;20635;-50
2020/12/02 05:29:46;;;;;;;9.38;8.23;;;18.40;47.80;;;;;;5056257;28;20116;-57
2020/12/02 05:32:14;;;;;;;9.45;7.90;;;18.40;47.90;;;;;;5062722;28;20405;-51
2020/12/02 05:34:39;;;;;;;9.63;7.10;;;18.40;48.00;;;;;;5057698;28;20044;-50
2020/12/02 05:37:08;;;;;;;8.48;7.57;;;18.40;47.80;;;;;;5065095;28;20036;-50
2020/12/02 05:39:41;;;;;;;9.13;7.82;;;18.30;47.80;;;;;;5063622;28;20039;-51
2020/12/02 05:42:31;;;;;;;12.68;9.40;;;18.30;47.90;;;;;;5060813;28;20032;-53
2020/12/02 05:45:02;;;;;;;10.57;8.95;;;18.30;47.90;;;;;;5069930;28;20060;-50
2020/12/02 05:47:28;;;;;;;12.45;8.90;;;18.30;48.00;;;;;;5067057;28;20054;-50
2020/12/02 05:49:58;;;;;;;13.70;9.98;;;18.30;48.00;;;;;;5065829;28;20036;-50
2020/12/02 05:52:32;;;;;;;13.23;9.95;;;18.30;48.00;;;;;;5053523;28;20408;-50
2020/12/02 05:55:10;;;;;;;11.30;8.93;;;18.30;48.10;;;;;;5066155;28;20100;-50
2020/12/02 05:57:40;;;;;;;13.38;9.02;;;18.30;48.10;;;;;;5077388;22;20052;-44
2020/12/02 06:00:06;;;;;;;13.38;9.27;;;18.30;48.10;;;;;;5056236;28;20092;-45
2020/12/02 06:02:32;;;;;;;11.43;9.07;;;18.30;48.10;;;;;;5064946;28;21386;-44
2020/12/02 06:04:57;;;;;;;12.55;10.25;;;18.20;48.10;;;;;;5065535;28;20043;-46
2020/12/02 06:07:23;;;;;;;12.52;9.25;;;18.20;48.00;;;;;;5064864;28;20643;-43
2020/12/02 06:09:50;;;;;;;12.40;9.38;;;18.20;48.10;;;;;;5038263;28;20037;-44
2020/12/02 06:12:18;;;;;;;12.25;9.48;;;18.20;48.10;;;;;;5063444;28;20036;-45
2020/12/02 06:14:43;;;;;;;18.08;9.45;;;18.20;48.10;;;;;;5045862;28;20177;-53
2020/12/02 06:17:13;;;;;;;14.23;9.85;;;18.20;48.20;;;;;;5063672;28;20123;-46
2020/12/02 06:19:38;;;;;;;14.75;10.07;;;18.20;48.20;;;;;;5045239;28;20086;-44
2020/12/02 06:22:05;;;;;;;12.60;9.23;;;18.20;48.10;;;;;;5049122;28;20044;-44
2020/12/02 06:24:38;;;;;;;15.50;9.38;;;18.10;48.60;;;;;;5044238;28;20562;-44
2020/12/02 06:27:36;;;;;;;13.10;9.20;;;18.10;48.10;;;;;;5063010;28;20075;-44
2020/12/02 06:30:04;;;;;;;12.98;8.93;;;18.10;48.40;;;;;;5053731;28;20028;-45
2020/12/02 06:32:30;;;;;;;13.18;10.20;;;18.10;48.30;;;;;;5062717;28;20025;-44
2020/12/02 06:35:29;;;;;;;13.07;10.48;;;18.10;48.30;;;;;;5063838;28;20409;-45
2020/12/02 06:38:15;;;;;;;16.52;10.95;;;18.10;48.30;;;;;;5009099;28;20086;-45
2020/12/02 06:40:59;;;;;;;;;;;18.10;48.30;;;;;;5064054;28;20108;-45
2020/12/02 06:43:25;;;;;;;16.65;14.13;;;18.20;48.60;;;;;;5063144;28;19938;-46
2020/12/02 06:45:50;;;;;;;18.13;14.48;;;18.30;48.70;;;;;;5062605;28;20036;-45
2020/12/02 06:48:25;;;;;;;20.50;14.88;;;18.40;48.80;;;;;;5064288;28;20473;-44
2020/12/02 06:50:51;;;;;;;26.35;15.60;;;18.50;48.70;;;;;;5063017;28;20047;-47
2020/12/02 06:53:18;;;;;;;23.95;15.10;;;18.60;48.40;;;;;;5045266;28;20036;-52
2020/12/02 06:55:45;;;;;;;28.02;14.80;;;18.70;48.40;;;;;;5045527;28;20029;-47
2020/12/02 06:58:18;;;;;;;24.30;13.77;;;18.80;48.30;;;;;;5044635;28;20044;-45
2020/12/02 07:00:48;;;;;;;22.83;13.98;;;18.90;48.20;;;;;;5062811;28;20029;-46
2020/12/02 07:03:32;;;;;;;21.02;13.93;;;18.90;48.20;;;;;;5063146;28;20051;-44
2020/12/02 07:06:20;;;;;;;24.25;15.43;;;19.00;48.30;;;;;;5044162;28;20171;-45
2020/12/02 07:08:46;;;;;;;25.83;14.70;;;19.10;48.00;;;;;;5046408;28;20034;-44
2020/12/02 07:11:12;;;;;;;21.00;13.52;;;19.10;47.90;;;;;;5062707;28;20033;-45
2020/12/02 07:13:39;;;;;;;25.33;14.27;;;19.10;48.00;;;;;;5062435;28;20044;-45
2020/12/02 07:16:12;;;;;;;22.48;13.43;;;19.20;47.80;;;;;;5062906;28;20508;-46
2020/12/02 07:18:37;;;;;;;21.90;12.38;;;19.20;47.80;;;;;;5062745;28;20044;-45
2020/12/02 07:21:26;;;;;;;24.83;14.38;;;19.30;47.80;;;;;;5062586;28;20032;-45
2020/12/02 07:23:53;;;;;;;22.23;14.05;;;19.30;47.70;;;;;;5045036;28;20455;-46
2020/12/02 07:26:18;;;;;;;19.27;13.00;;;19.30;47.50;;;;;;5064038;28;20039;-47
2020/12/02 07:28:44;;;;;;;20.88;12.68;;;19.30;47.40;;;;;;5028760;28;20029;-45
2020/12/02 07:31:16;;;;;;;21.10;12.82;;;19.30;47.50;;;;;;5062923;28;20461;-48
2020/12/02 07:33:47;;;;;;;18.00;13.23;;;19.30;47.40;;;;;;5030577;28;20448;-45
2020/12/02 07:36:14;;;;;;;17.27;12.77;;;19.40;47.50;;;;;;5029335;28;20033;-46
2020/12/02 07:38:43;;;;;;;18.85;13.80;;;19.30;47.60;;;;;;5063623;28;20041;-47
2020/12/02 07:41:11;;;;;;;18.92;11.73;;;19.30;47.50;;;;;;5062801;28;20037;-47
2020/12/02 07:43:36;;;;;;;22.80;13.15;;;19.30;47.40;;;;;;5029220;28;20032;-46
2020/12/02 07:46:02;;;;;;;20.20;13.43;;;19.20;47.30;;;;;;5045811;28;20397;-47
2020/12/02 07:48:28;;;;;;;18.20;13.20;;;19.20;47.40;;;;;;5045542;28;20047;-48
2020/12/02 07:51:02;;;;;;;17.40;11.50;;;19.20;47.40;;;;;;5045079;28;20028;-47
2020/12/02 07:53:39;;;;;;;16.60;12.65;;;19.20;47.40;;;;;;5029623;28;20028;-46
2020/12/02 07:56:07;;;;;;;21.00;12.90;;;19.10;47.40;;;;;;5045506;28;20110;-47
2020/12/02 07:58:36;;;;;;;16.73;12.50;;;19.10;47.70;;;;;;5029402;28;20386;-44
2020/12/02 08:01:25;;;;;;;16.45;11.32;;;19.10;47.70;;;;;;5028919;28;20312;-45
2020/12/02 08:03:51;;;;;;;16.08;12.20;;;19.10;47.80;;;;;;5063673;28;20443;-45
2020/12/02 08:06:37;;;;;;;21.77;12.88;;;19.00;47.60;;;;;;5063140;28;20039;-47
2020/12/02 08:09:03;;;;;;;14.20;10.15;;;19.00;47.60;;;;;;5063466;28;20035;-47
2020/12/02 08:11:28;;;;;;;17.08;11.98;;;19.00;47.60;;;;;;5063137;28;20025;-44
2020/12/02 08:13:56;;;;;;;13.98;11.35;;;18.90;47.60;;;;;;5045094;28;20037;-50
2020/12/02 08:16:28;;;;;;;17.98;11.55;;;18.90;47.70;;;;;;5046076;28;20028;-46
2020/12/02 08:18:55;;;;;;;15.30;11.77;;;18.90;47.70;;;;;;5063035;28;20424;-48
2020/12/02 08:21:22;;;;;;;13.82;10.63;;;18.90;47.60;;;;;;5045590;28;20102;-45
2020/12/02 08:24:11;;;;;;;14.85;10.23;;;18.80;47.60;;;;;;5044835;28;20092;-47
2020/12/02 08:26:36;;;;;;;14.77;10.95;;;18.80;47.60;;;;;;5050634;28;20120;-44
2020/12/02 08:29:04;;;;;;;13.05;11.10;;;18.80;47.60;;;;;;5032754;28;20035;-48
2020/12/02 08:31:30;;;;;;;15.55;11.45;;;18.80;47.40;;;;;;5048595;28;20036;-48
2020/12/02 08:34:20;;;;;;;14.15;9.75;;;18.80;47.50;;;;;;5066515;28;20033;-47
2020/12/02 08:37:11;;;;;;;15.15;11.00;;;18.70;47.50;;;;;;5067396;28;20029;-47
2020/12/02 08:39:40;;;;;;;12.88;10.52;;;18.80;47.90;;;;;;5065441;28;20078;-49
2020/12/02 08:42:06;;;;;;;13.52;10.70;;;18.80;47.90;;;;;;5065587;28;20378;-48
2020/12/02 08:44:32;;;;;;;13.55;10.13;;;18.80;47.80;;;;;;5047795;28;20086;-47
2020/12/02 08:46:59;;;;;;;14.00;11.35;;;18.80;47.60;;;;;;5066678;28;20041;-48
2020/12/02 08:49:32;;;;;;;12.80;10.32;;;18.80;47.50;;;;;;5049276;28;20146;-47
2020/12/02 08:51:57;;;;;;;14.80;10.77;;;18.90;47.40;;;;;;5047680;28;20341;-49
2020/12/02 08:54:24;;;;;;;13.48;10.57;;;18.90;47.50;;;;;;5066593;28;20553;-45
2020/12/02 08:56:50;;;;;;;15.25;10.73;;;18.90;47.40;;;;;;5066578;28;20426;-44
2020/12/02 08:59:16;;;;;;;14.02;10.32;;;18.90;47.40;;;;;;5066360;28;20056;-46
2020/12/02 09:01:41;;;;;;;12.75;9.27;;;18.90;47.60;;;;;;5065296;28;20056;-47
2020/12/02 09:04:07;;;;;;;14.02;10.60;;;18.90;47.50;;;;;;5064464;28;20071;-46
2020/12/02 09:06:32;;;;;;;15.85;9.85;;;18.90;47.40;;;;;;5065174;28;20082;-47
2020/12/02 09:08:58;;;;;;;15.77;10.55;;;19.00;47.20;;;;;;5065630;28;20095;-54
2020/12/02 09:11:30;;;;;;;12.25;9.98;;;19.00;47.40;;;;;;5047312;28;20120;-44
2020/12/02 09:13:56;;;;;;;17.05;10.90;;;19.00;47.60;;;;;;5060274;28;20053;-47
2020/12/02 09:16:23;;;;;;;12.50;9.98;;;19.10;48.00;;;;;;5045535;28;20057;-46
2020/12/02 09:18:49;;;;;;;15.55;11.13;;;19.20;49.10;;;;;;5027224;28;20556;-47
2020/12/02 09:21:15;;;;;;;16.13;11.50;;;19.20;48.50;;;;;;5045412;28;20037;-44
2020/12/02 09:23:40;;;;;;;22.27;10.98;;;19.20;48.50;;;;;;5045307;28;20044;-45
2020/12/02 09:26:06;;;;;;;13.95;9.85;;;19.20;48.60;;;;;;5045280;28;20029;-45
2020/12/02 09:28:31;;;;;;;13.20;10.57;;;19.20;48.60;;;;;;5045109;28;20035;-46
2020/12/02 09:30:57;;;;;;;13.07;10.55;;;19.20;48.50;;;;;;5045407;28;20033;-45
2020/12/02 09:33:22;;;;;;;15.10;10.02;;;19.20;48.40;;;;;;5045425;28;20306;-46
2020/12/02 09:35:48;;;;;;;12.90;9.70;;;19.30;48.40;;;;;;5044408;28;20433;-47
2020/12/02 09:38:13;;;;;;;13.15;9.48;;;19.30;48.30;;;;;;5045582;28;20036;-48
2020/12/02 09:40:38;;;;;;;13.98;10.65;;;19.30;47.90;;;;;;5027425;28;20049;-46
2020/12/02 09:43:36;;;;;;;15.60;10.27;;;19.30;47.50;;;;;;5044459;28;20397;-46
2020/12/02 09:46:17;;;;;;;15.35;9.77;;;19.30;47.00;;;;;;5006260;28;20482;-46
2020/12/02 09:48:42;;;;;;;13.90;11.02;;;19.30;46.60;;;;;;5027205;28;20025;-46
2020/12/02 09:51:18;;;;;;;12.25;9.98;;;19.30;46.50;;;;;;5043412;28;20055;-46
2020/12/02 09:53:44;;;;;;;15.80;10.55;;;19.40;46.60;;;;;;5027042;28;20045;-44
2020/12/02 09:56:09;;;;;;;14.05;10.52;;;19.30;46.60;;;;;;5046454;28;20071;-46
2020/12/02 09:58:36;;;;;;;14.85;10.23;;;19.40;46.60;;;;;;5046435;28;20056;-47
2020/12/02 10:01:03;;;;;;;12.57;9.15;;;19.40;46.70;;;;;;5045124;28;20460;-46
2020/12/02 10:04:00;;;;;;;13.23;9.02;;;19.40;46.80;;;;;;5010358;28;20025;-46
2020/12/02 10:06:41;;;;;;;15.60;10.35;;;19.30;46.80;;;;;;5043889;28;20067;-46
2020/12/02 10:09:34;;;;;;;12.80;9.23;;;19.30;46.80;;;;;;5043272;28;20678;-46
2020/12/02 10:12:12;;;;;;;9.77;8.77;;;19.30;47.10;;;;;;5043752;28;20029;-49
2020/12/02 10:14:57;;;;;;;12.70;9.40;;;19.30;47.20;;;;;;5025905;28;20068;-48
2020/12/02 10:17:45;;;;;;;11.82;9.77;;;19.30;47.20;;;;;;5025742;28;20029;-44
2020/12/02 10:20:29;;;;;;;13.13;9.43;;;19.30;47.20;;;;;;5025682;28;20595;-47
2020/12/02 10:23:02;;;;;;;11.82;9.57;;;19.20;47.20;;;;;;5026274;28;20036;-47
2020/12/02 10:25:40;;;;;;;11.80;9.07;;;19.20;47.10;;;;;;5025616;28;20364;-45
2020/12/02 10:28:31;;;;;;;15.35;9.25;;;19.20;47.30;;;;;;5002764;28;20627;-45
2020/12/02 10:31:12;;;;;;;12.00;9.77;;;19.20;47.20;;;;;;5025668;28;20030;-44
2020/12/02 10:34:20;;;;;;;10.48;8.75;;;19.20;47.30;;;;;;5025746;28;20091;-45
2020/12/02 10:36:52;;;;;;;13.18;9.05;;;19.20;47.30;;;;;;4961352;28;20435;-46
2020/12/02 10:39:23;;;;;;;11.23;9.00;;;19.20;47.20;;;;;;5032302;28;20627;-45
2020/12/02 10:41:55;;;;;;;11.50;9.05;;;19.20;47.20;;;;;;5043228;28;20405;-47
2020/12/02 10:44:54;;;;;;;14.50;9.48;;;19.20;47.40;;;;;;5025878;28;20414;-47
2020/12/02 10:47:39;;;;;;;11.50;8.35;;;19.10;47.50;;;;;;5043373;28;20037;-44
2020/12/02 10:50:05;;;;;;;9.15;8.05;;;19.20;47.70;;;;;;5043271;28;20048;-46
2020/12/02 10:52:30;;;;;;;11.35;8.65;;;19.20;47.20;;;;;;5042941;28;20051;-47
2020/12/02 10:54:56;;;;;;;10.75;8.02;;;19.20;47.30;;;;;;5043124;28;20251;-46
2020/12/02 10:57:23;;;;;;;11.63;9.18;;;19.20;47.10;;;;;;5008636;28;20091;-46
2020/12/02 10:59:54;;;;;;;9.55;8.55;;;19.20;47.00;;;;;;5043583;28;20047;-46
2020/12/02 11:02:27;;;;;;;11.15;9.43;;;19.20;46.90;;;;;;5024699;28;20112;-45
2020/12/02 11:04:52;;;;;;;11.05;8.80;;;19.10;47.50;;;;;;5043109;28;20051;-46
2020/12/02 11:07:47;;;;;;;10.30;8.77;;;19.10;46.80;;;;;;5043301;28;20052;-45
2020/12/02 11:10:28;;;;;;;9.55;8.35;;;19.10;46.80;;;;;;5025290;28;20039;-46
2020/12/02 11:13:06;;;;;;;10.23;8.50;;;19.10;46.70;;;;;;5025818;28;20032;-46
2020/12/02 11:15:53;;;;;;;14.20;8.65;;;19.10;46.70;;;;;;5043325;28;20482;-45
2020/12/02 11:18:27;;;;;;;12.73;8.27;;;19.10;46.80;;;;;;5042249;28;20124;-45
2020/12/02 11:21:10;;;;;;;10.07;7.93;;;19.10;46.80;;;;;;4992363;28;20021;-45
2020/12/02 11:23:55;;;;;;;8.80;7.70;;;19.00;46.80;;;;;;5027393;28;20511;-45
2020/12/02 11:26:29;;;;;;;9.80;7.50;;;18.90;47.00;;;;;;5041497;28;21817;-47
2020/12/02 11:28:55;;;;;;;9.32;7.85;;;18.80;47.00;;;;;;5042023;28;20036;-46
2020/12/02 11:31:20;;;;;;;9.63;8.63;;;18.80;47.10;;;;;;5041415;28;20032;-47
2020/12/02 11:34:09;;;;;;;8.60;7.72;;;18.80;47.20;;;;;;5043087;28;20494;-49
2020/12/02 11:36:47;;;;;;;8.40;7.60;;;18.80;47.20;;;;;;5042059;28;20025;-45
2020/12/02 11:39:23;;;;;;;9.65;7.82;;;18.80;47.30;;;;;;5041469;28;20393;-50
2020/12/02 11:42:08;;;;;;;9.35;8.25;;;18.80;47.30;;;;;;5024485;28;20025;-49
2020/12/02 11:44:46;;;;;;;8.38;7.00;;;18.90;47.20;;;;;;5024654;28;20083;-47
2020/12/02 11:47:30;;;;;;;7.93;7.13;;;18.90;47.10;;;;;;5024716;28;20120;-47
2020/12/02 11:49:59;;;;;;;8.15;6.97;;;19.00;47.10;;;;;;5026963;28;20029;-44
2020/12/02 11:52:30;;;;;;;8.48;7.20;;;19.00;47.00;;;;;;5042357;28;20116;-45
2020/12/02 11:54:56;;;;;;;8.15;7.35;;;19.10;46.90;;;;;;5042730;28;20075;-45
2020/12/02 11:57:21;;;;;;;8.10;7.13;;;19.10;46.90;;;;;;5042113;28;20033;-50
2020/12/02 11:59:47;;;;;;;7.70;6.90;;;19.10;46.90;;;;;;5066128;22;20052;-51
2020/12/02 12:02:19;;;;;;;7.05;6.35;;;19.10;46.80;;;;;;5066591;28;20032;-55
2020/12/02 12:05:03;;;;;;;9.10;7.28;;;19.20;46.80;;;;;;5021142;28;20554;-54
2020/12/02 12:07:45;;;;;;;8.70;7.70;;;19.30;46.60;;;;;;5009914;28;20029;-53
2020/12/02 12:10:17;;;;;;;11.13;8.00;;;19.30;46.50;;;;;;5009499;28;20105;-55
2020/12/02 12:12:52;;;;;;;9.27;7.28;;;19.30;46.50;;;;;;5008874;28;20013;-50
2020/12/02 12:15:46;;;;;;;8.75;6.97;;;19.20;46.40;;;;;;5009209;28;20028;-53
2020/12/02 12:18:32;;;;;;;7.63;6.85;;;19.20;46.50;;;;;;5006281;28;20033;-51
2020/12/02 12:20:58;;;;;;;7.40;6.70;;;19.20;46.60;;;;;;5011524;28;20121;-51
2020/12/02 12:23:56;;;;;;;8.57;7.05;;;19.10;46.50;;;;;;5026521;28;20018;-50
2020/12/02 12:26:21;;;;;;;7.80;7.00;;;19.10;46.50;;;;;;5008447;28;20025;-55
2020/12/02 12:28:47;;;;;;;7.72;6.93;;;19.10;46.50;;;;;;5026794;28;20502;-55
2020/12/02 12:31:39;;;;;;;12.98;8.82;;;19.10;46.60;;;;;;5008628;28;20021;-50
2020/12/02 12:34:44;;;;;;;10.95;7.57;;;19.10;46.60;;;;;;5009734;28;20046;-53
2020/12/02 12:37:16;;;;;;;7.70;6.63;;;19.10;46.70;;;;;;5008215;28;20029;-55
2020/12/02 12:39:44;;;;;;;7.60;6.80;;;19.00;46.70;;;;;;5026493;28;20018;-50
2020/12/02 12:42:11;;;;;;;7.60;6.72;;;19.00;46.80;;;;;;5007846;28;20034;-56
2020/12/02 12:44:37;;;;;;;8.60;7.07;;;18.90;46.80;;;;;;4992279;28;20032;-52
2020/12/02 12:47:06;;;;;;;7.60;6.80;;;18.90;46.80;;;;;;5008330;28;20021;-54
2020/12/02 12:49:32;;;;;;;7.35;6.50;;;18.90;46.90;;;;;;5008476;28;20022;-50
2020/12/02 12:51:58;;;;;;;7.63;6.22;;;18.90;46.90;;;;;;5025647;28;20494;-50
2020/12/02 12:54:24;;;;;;;7.97;6.65;;;18.90;46.90;;;;;;5008492;28;20017;-58
2020/12/02 12:56:52;;;;;;;7.82;6.55;;;18.90;47.00;;;;;;5008491;28;20018;-53